createdAt,value
2019-02-25T00:02:46.217Z,49.21
2019-02-25T00:05:48.771Z,49.97
2019-02-25T00:08:51.552Z,49.85
2019-02-25T00:11:54.112Z,48.81
2019-02-25T00:14:56.672Z,46.95
2019-02-25T00:17:59.241Z,47.62
2019-02-25T00:21:01.840Z,46.84
2019-02-25T00:24:04.912Z,48.68
2019-02-25T00:27:07.420Z,50.14
2019-02-25T00:30:13.855Z,48.95
2019-02-25T00:33:16.426Z,49.33
2019-02-25T00:36:19.187Z,49.59
2019-02-25T00:39:21.798Z,47.53
2019-02-25T00:42:24.580Z,49.24
2019-02-25T00:45:27.204Z,48.37
2019-02-25T00:48:29.867Z,49.39
2019-02-25T00:51:32.483Z,50.64
2019-02-25T00:54:35.081Z,49.77
2019-02-25T00:57:37.724Z,50.00
2019-02-25T01:00:40.291Z,48.51
2019-02-25T01:03:42.907Z,48.79
2019-02-25T01:06:45.627Z,47.42
2019-02-25T01:09:50.745Z,46.32
2019-02-25T01:12:53.325Z,46.71
2019-02-25T01:15:57.480Z,46.36
2019-02-25T01:19:00.118Z,44.13
2019-02-25T01:22:06.926Z,45.73
2019-02-25T01:25:09.988Z,45.48
2019-02-25T01:28:15.077Z,45.04
2019-02-25T01:31:17.706Z,45.98
2019-02-25T01:34:27.853Z,46.32
2019-02-25T01:37:30.474Z,46.38
2019-02-25T01:40:33.128Z,47.26
2019-02-25T01:43:35.741Z,48.67
2019-02-25T01:46:39.491Z,47.92
2019-02-25T01:49:42.254Z,50.45
2019-02-25T01:52:44.796Z,50.71
2019-02-25T01:55:47.463Z,50.26
2019-02-25T01:58:50.010Z,48.70
2019-02-25T02:01:52.575Z,50.25
2019-02-25T02:04:55.141Z,51.74
2019-02-25T02:07:57.726Z,51.81
2019-02-25T02:11:00.500Z,51.86
2019-02-25T02:14:03.325Z,52.70
2019-02-25T02:17:05.873Z,52.03
2019-02-25T02:20:09.841Z,51.80
2019-02-25T02:23:12.474Z,51.05
2019-02-25T02:26:16.321Z,51.50
2019-02-25T02:29:20.784Z,52.45
2019-02-25T02:32:23.529Z,52.44
2019-02-25T02:35:26.209Z,51.79
2019-02-25T02:38:28.884Z,49.09
2019-02-25T02:42:09.032Z,49.61
2019-02-25T02:45:38.766Z,48.02
2019-02-25T02:48:45.329Z,44.52
2019-02-25T02:51:47.923Z,48.07
2019-02-25T02:54:50.580Z,48.62
2019-02-25T02:57:53.249Z,49.38
2019-02-25T03:00:55.839Z,47.95
2019-02-25T03:03:58.485Z,46.05
2019-02-25T03:07:01.178Z,49.74
2019-02-25T03:10:05.435Z,51.03
2019-02-25T03:13:08.084Z,51.91
2019-02-25T03:16:10.867Z,52.09
2019-02-25T03:19:13.455Z,51.88
2019-02-25T03:22:16.040Z,51.67
2019-02-25T03:25:18.834Z,50.52
2019-02-25T03:28:21.634Z,49.48
2019-02-25T03:31:25.224Z,48.83
2019-02-25T03:34:28.871Z,51.29
2019-02-25T03:37:31.526Z,52.89
2019-02-25T03:40:34.361Z,51.61
2019-02-25T03:43:37.052Z,47.80
2019-02-25T03:46:39.896Z,50.92
2019-02-25T03:49:42.465Z,51.75
2019-02-25T03:52:45.099Z,52.87
2019-02-25T03:55:49.305Z,54.25
2019-02-25T03:58:51.935Z,53.30
2019-02-25T04:01:54.671Z,51.74
2019-02-25T04:04:59.141Z,52.64
2019-02-25T04:08:01.900Z,53.12
2019-02-25T04:11:04.586Z,52.61
2019-02-25T04:14:07.140Z,52.28
2019-02-25T04:17:09.732Z,52.41
2019-02-25T04:20:14.062Z,51.98
2019-02-25T04:23:16.744Z,52.21
2019-02-25T04:26:19.449Z,51.77
2019-02-25T04:29:22.102Z,51.76
2019-02-25T04:32:24.733Z,50.51
2019-02-25T04:35:27.410Z,49.60
2019-02-25T04:38:29.970Z,48.21
2019-02-25T04:41:32.629Z,47.99
2019-02-25T04:44:35.270Z,49.36
2019-02-25T04:47:37.871Z,50.64
2019-02-25T04:50:40.510Z,49.00
2019-02-25T04:53:43.276Z,47.23
2019-02-25T04:56:45.906Z,46.11
2019-02-25T04:59:48.685Z,46.10
2019-02-25T05:02:51.308Z,46.46
2019-02-25T05:05:53.889Z,47.32
2019-02-25T05:08:56.471Z,47.82
2019-02-25T05:11:59.119Z,47.68
2019-02-25T05:15:01.701Z,47.72
2019-02-25T05:18:04.358Z,49.65
2019-02-25T05:21:07.151Z,49.97
2019-02-25T05:24:09.881Z,50.03
2019-02-25T05:27:12.513Z,49.61
2019-02-25T05:30:15.182Z,50.13
2019-02-25T05:33:17.749Z,50.64
2019-02-25T05:36:20.306Z,51.46
2019-02-25T05:39:22.865Z,52.16
2019-02-25T05:42:25.529Z,52.95
2019-02-25T05:45:28.312Z,53.12
2019-02-25T05:48:31.055Z,52.89
2019-02-25T05:51:33.786Z,52.64
2019-02-25T05:54:36.571Z,52.25
2019-02-25T05:57:39.270Z,51.48
2019-02-25T06:00:42.335Z,50.41
2019-02-25T06:03:45.049Z,51.66
2019-02-25T06:06:47.582Z,53.38
2019-02-25T06:09:50.399Z,50.80
2019-02-25T06:12:54.131Z,49.47
2019-02-25T06:15:56.781Z,49.67
2019-02-25T06:18:59.351Z,49.38
2019-02-25T06:22:02.032Z,50.11
2019-02-25T06:25:05.517Z,51.74
2019-02-25T06:28:08.136Z,52.56
2019-02-25T06:31:10.846Z,51.92
2019-02-25T06:34:13.565Z,51.08
2019-02-25T06:37:16.170Z,49.20
2019-02-25T06:40:18.969Z,48.26
2019-02-25T06:43:21.610Z,48.05
2019-02-25T06:46:24.160Z,48.97
2019-02-25T06:49:26.854Z,48.73
2019-02-25T06:52:29.466Z,48.20
2019-02-25T06:55:32.116Z,47.79
2019-02-25T06:58:35.673Z,47.95
2019-02-25T07:01:39.350Z,47.59
2019-02-25T07:05:02.621Z,48.74
2019-02-25T07:08:11.033Z,47.60
2019-02-25T07:11:20.748Z,48.73
2019-02-25T07:14:38.774Z,49.29
2019-02-25T07:18:03.955Z,49.05
2019-02-25T07:21:21.859Z,48.65
2019-02-25T07:24:39.458Z,44.81
2019-02-25T07:28:16.879Z,42.94
2019-02-25T07:31:31.775Z,45.01
2019-02-25T07:34:53.898Z,45.79
2019-02-25T07:38:14.767Z,46.17
2019-02-25T07:41:34.247Z,46.34
2019-02-25T07:44:59.398Z,47.84
2019-02-25T07:48:19.590Z,46.39
2019-02-25T07:51:33.070Z,45.79
2019-02-25T07:55:01.301Z,47.44
2019-02-25T07:58:13.991Z,47.62
2019-02-25T08:01:36.048Z,46.60
2019-02-25T08:04:58.026Z,44.03
2019-02-25T08:08:15.005Z,43.36
2019-02-25T08:11:29.868Z,43.35
2019-02-25T08:15:01.218Z,45.01
2019-02-25T08:18:33.400Z,46.36
2019-02-25T08:21:47.758Z,51.51
2019-02-25T08:25:08.938Z,50.25
2019-02-25T08:28:37.192Z,49.55
2019-02-25T08:31:58.184Z,51.08
2019-02-25T08:35:29.278Z,51.58
2019-02-25T08:39:04.600Z,51.74
2019-02-25T08:42:15.729Z,51.74
2019-02-25T08:45:24.258Z,53.98
2019-02-25T08:48:40.749Z,53.64
2019-02-25T08:51:43.514Z,55.09
2019-02-25T08:54:46.068Z,54.15
2019-02-25T08:57:50.615Z,53.67
2019-02-25T09:00:53.360Z,50.97
2019-02-25T09:03:55.973Z,51.78
2019-02-25T09:06:58.578Z,51.43
2019-02-25T09:10:01.163Z,51.83
2019-02-25T09:13:05.274Z,52.90
2019-02-25T09:16:07.801Z,54.17
2019-02-25T09:19:10.494Z,56.14
2019-02-25T09:22:13.180Z,58.50
2019-02-25T09:25:15.733Z,60.01
2019-02-25T09:28:18.522Z,60.51
2019-02-25T09:31:21.267Z,60.07
2019-02-25T09:34:23.987Z,60.85
2019-02-25T09:37:27.754Z,58.10
2019-02-25T09:40:30.402Z,58.98
2019-02-25T09:43:33.105Z,55.58
2019-02-25T09:46:35.774Z,54.77
2019-02-25T09:49:38.348Z,53.10
2019-02-25T09:52:41.078Z,52.46
2019-02-25T09:55:43.756Z,53.02
2019-02-25T09:58:46.337Z,53.53
2019-02-25T10:01:49.039Z,54.99
2019-02-25T10:04:51.633Z,55.60
2019-02-25T10:07:54.380Z,56.98
2019-02-25T10:10:56.995Z,58.01
2019-02-25T10:13:59.677Z,58.57
2019-02-25T10:17:02.250Z,58.17
2019-02-25T10:20:05.575Z,56.38
2019-02-25T10:23:08.119Z,57.20
2019-02-25T10:26:10.684Z,57.34
2019-02-25T10:29:13.368Z,56.40
2019-02-25T10:32:16.013Z,57.40
2019-02-25T10:35:18.959Z,55.62
2019-02-25T10:38:21.637Z,56.03
2019-02-25T10:41:26.184Z,56.15
2019-02-25T10:44:29.710Z,55.37
2019-02-25T10:47:32.847Z,54.49
2019-02-25T10:50:35.989Z,50.42
2019-02-25T10:53:39.244Z,49.55
2019-02-25T10:56:51.576Z,45.04
2019-02-25T10:59:55.497Z,45.43
2019-02-25T11:02:58.342Z,45.98
2019-02-25T11:06:03.190Z,43.54
2019-02-25T11:09:43.976Z,42.39
2019-02-25T11:12:46.985Z,43.98
2019-02-25T11:15:50.755Z,42.21
2019-02-25T11:18:55.080Z,39.38
2019-02-25T11:21:57.876Z,40.09
2019-02-25T11:25:00.530Z,40.67
2019-02-25T11:28:05.384Z,39.06
2019-02-25T11:31:07.835Z,38.04
2019-02-25T11:34:10.630Z,37.54
2019-02-25T11:37:14.472Z,38.72
2019-02-25T11:40:17.664Z,41.13
2019-02-25T11:43:21.619Z,40.37
2019-02-25T11:46:24.404Z,40.72
2019-02-25T11:49:26.979Z,41.21
2019-02-25T11:52:29.608Z,39.94
2019-02-25T11:55:32.163Z,39.43
2019-02-25T11:58:34.753Z,38.18
2019-02-25T12:01:37.460Z,38.45
2019-02-25T12:04:40.211Z,38.23
2019-02-25T12:07:43.063Z,37.77
2019-02-25T12:10:45.628Z,39.26
2019-02-25T12:13:49.305Z,37.27
2019-02-25T12:16:51.929Z,35.93
2019-02-25T12:19:54.599Z,36.96
2019-02-25T12:22:57.157Z,34.45
2019-02-25T12:25:59.712Z,34.23
2019-02-25T12:29:10.615Z,34.27
2019-02-25T12:32:06.885Z,35.24
2019-02-25T12:35:09.739Z,29.67
2019-02-25T12:38:12.323Z,27.72
2019-02-25T12:41:15.023Z,27.80
2019-02-25T12:44:17.658Z,30.40
2019-02-25T12:47:23.632Z,32.01
2019-02-25T12:50:26.260Z,28.01
2019-02-25T12:53:28.920Z,30.10
2019-02-25T12:56:31.462Z,30.11
2019-02-25T12:59:34.024Z,30.14
2019-02-25T13:02:36.624Z,32.68
2019-02-25T13:05:39.258Z,35.33
2019-02-25T13:08:42.794Z,33.97
2019-02-25T13:11:45.570Z,36.90
2019-02-25T13:14:48.197Z,36.68
2019-02-25T13:17:51.078Z,36.20
2019-02-25T13:20:53.735Z,36.77
2019-02-25T13:23:56.949Z,37.73
2019-02-25T13:27:01.468Z,37.12
2019-02-25T13:30:07.682Z,38.42
2019-02-25T13:33:10.391Z,40.28
2019-02-25T13:36:13.200Z,37.85
2019-02-25T13:39:15.825Z,38.99
2019-02-25T13:42:18.648Z,38.81
2019-02-25T13:45:21.358Z,38.56
2019-02-25T13:48:24.057Z,38.41
2019-02-25T13:51:26.742Z,39.21
2019-02-25T13:54:29.578Z,38.09
2019-02-25T13:57:32.223Z,41.50
2019-02-25T14:00:36.523Z,42.58
2019-02-25T14:03:39.143Z,43.66
2019-02-25T14:06:42.132Z,44.01
2019-02-25T14:09:44.811Z,42.69
2019-02-25T14:12:47.697Z,42.57
2019-02-25T14:15:50.659Z,42.75
2019-02-25T14:18:53.308Z,43.66
2019-02-25T14:21:56.124Z,41.97
2019-02-25T14:24:58.915Z,42.82
2019-02-25T14:28:02.830Z,43.00
2019-02-25T14:31:06.370Z,41.73
2019-02-25T14:34:09.098Z,43.34
2019-02-25T14:37:13.408Z,43.14
2019-02-25T14:40:17.140Z,42.60
2019-02-25T14:43:22.725Z,42.21
2019-02-25T14:46:26.823Z,40.70
2019-02-25T14:49:30.132Z,41.43
2019-02-25T14:52:33.971Z,41.19
2019-02-25T14:55:36.708Z,41.99
2019-02-25T14:58:40.568Z,41.46
2019-02-25T15:01:44.078Z,41.74
2019-02-25T15:04:49.130Z,41.86
2019-02-25T15:07:53.379Z,43.86
2019-02-25T15:11:00.029Z,45.11
2019-02-25T15:14:00.967Z,45.82
2019-02-25T15:17:06.066Z,45.72
2019-02-25T15:20:10.482Z,47.54
2019-02-25T15:23:17.209Z,48.84
2019-02-25T15:26:21.534Z,49.29
2019-02-25T15:29:25.639Z,49.80
2019-02-25T15:32:29.535Z,50.44
2019-02-25T15:35:35.093Z,50.61
2019-02-25T15:38:38.892Z,50.41
2019-02-25T15:41:46.372Z,50.51
2019-02-25T15:44:51.269Z,49.82
2019-02-25T15:47:57.618Z,49.97
2019-02-25T15:51:00.773Z,51.34
2019-02-25T15:54:03.909Z,49.45
2019-02-25T15:57:06.548Z,49.61
2019-02-25T16:00:12.520Z,49.60
2019-02-25T16:03:16.367Z,49.01
2019-02-25T16:06:19.842Z,50.06
2019-02-25T16:09:25.467Z,49.46
2019-02-25T16:12:31.091Z,49.61
2019-02-25T16:15:34.244Z,49.25
2019-02-25T16:18:40.418Z,48.67
2019-02-25T16:21:43.877Z,49.34
2019-02-25T16:24:46.553Z,50.19
2019-02-25T16:27:50.475Z,50.02
2019-02-25T16:30:54.192Z,47.31
2019-02-25T16:33:57.683Z,48.60
2019-02-25T16:37:02.498Z,48.98
2019-02-25T16:40:08.291Z,48.33
2019-02-25T16:43:12.943Z,48.84
2019-02-25T16:46:16.264Z,49.02
2019-02-25T16:49:20.222Z,48.62
2019-02-25T16:52:24.765Z,49.37
2019-02-25T16:55:27.927Z,49.66
2019-02-25T16:58:34.165Z,51.61
2019-02-25T17:01:39.302Z,51.01
2019-02-25T17:04:41.559Z,50.91
2019-02-25T17:07:44.360Z,51.94
2019-02-25T17:10:51.228Z,52.70
2019-02-25T17:13:55.127Z,52.92
2019-02-25T17:16:58.597Z,52.64
2019-02-25T17:20:01.293Z,52.66
2019-02-25T17:23:04.024Z,52.98
2019-02-25T17:26:07.805Z,52.76
2019-02-25T17:29:11.314Z,52.40
2019-02-25T17:32:16.769Z,52.22
2019-02-25T17:35:20.863Z,52.38
2019-02-25T17:38:24.623Z,54.03
2019-02-25T17:41:28.512Z,52.90
2019-02-25T17:44:32.136Z,52.99
2019-02-25T17:47:39.698Z,52.19
2019-02-25T17:50:43.007Z,52.46
2019-02-25T17:53:46.408Z,51.97
2019-02-25T17:56:51.855Z,52.15
2019-02-25T17:59:55.348Z,52.16
2019-02-25T18:02:59.330Z,52.46
2019-02-25T18:06:05.094Z,52.38
2019-02-25T18:09:08.812Z,52.38
2019-02-25T18:12:12.963Z,52.06
2019-02-25T18:15:19.792Z,52.44
2019-02-25T18:18:24.518Z,52.95
2019-02-25T18:21:30.198Z,52.80
2019-02-25T18:24:33.003Z,52.48
2019-02-25T18:27:39.011Z,52.48
2019-02-25T18:30:40.299Z,51.55
2019-02-25T18:33:44.080Z,50.71
2019-02-25T18:36:49.035Z,50.48
2019-02-25T18:39:54.374Z,49.93
2019-02-25T18:43:00.240Z,50.28
2019-02-25T18:46:04.921Z,50.16
2019-02-25T18:49:09.483Z,51.06
2019-02-25T18:52:11.981Z,52.34
2019-02-25T18:55:15.628Z,53.21
2019-02-25T18:58:18.262Z,53.86
2019-02-25T19:01:21.244Z,54.15
2019-02-25T19:04:24.066Z,54.76
2019-02-25T19:07:27.300Z,55.29
2019-02-25T19:10:31.304Z,55.31
2019-02-25T19:13:34.332Z,54.96
2019-02-25T19:16:38.097Z,54.48
2019-02-25T19:19:42.459Z,54.63
2019-02-25T19:22:45.979Z,54.87
2019-02-25T19:25:50.149Z,55.16
2019-02-25T19:28:54.605Z,55.06
2019-02-25T19:32:00.638Z,55.24
2019-02-25T19:35:04.746Z,55.34
2019-02-25T19:38:07.854Z,55.72
2019-02-25T19:41:15.137Z,56.25
2019-02-25T19:44:17.128Z,57.41
2019-02-25T19:47:19.841Z,58.59
2019-02-25T19:50:22.844Z,58.74
2019-02-25T19:53:25.722Z,59.78
2019-02-25T19:56:28.649Z,59.96
2019-02-25T19:59:31.354Z,57.57
2019-02-25T20:02:35.181Z,57.37
2019-02-25T20:05:41.661Z,56.98
2019-02-25T20:08:43.302Z,56.98
2019-02-25T20:11:46.005Z,56.60
2019-02-25T20:14:48.819Z,56.50
2019-02-25T20:17:53.335Z,57.43
2019-02-25T20:20:57.602Z,57.92
2019-02-25T20:24:00.874Z,58.83
2019-02-25T20:27:05.223Z,59.87
2019-02-25T20:30:10.946Z,60.20
2019-02-25T20:33:13.550Z,59.19
2019-02-25T20:36:19.246Z,58.76
2019-02-25T20:39:20.943Z,57.88
2019-02-25T20:42:24.405Z,57.27
2019-02-25T20:45:31.052Z,56.44
2019-02-25T20:48:34.071Z,56.07
2019-02-25T20:51:36.835Z,55.76
2019-02-25T20:54:41.607Z,56.60
2019-02-25T20:57:44.415Z,56.82
2019-02-25T21:00:49.189Z,58.21
2019-02-25T21:03:54.724Z,59.75
2019-02-25T21:06:58.856Z,61.20
2019-02-25T21:10:03.524Z,61.30
2019-02-25T21:13:08.162Z,61.97
2019-02-25T21:16:10.827Z,61.26
2019-02-25T21:19:15.578Z,61.90
2019-02-25T21:22:29.483Z,60.49
2019-02-25T21:25:38.116Z,60.71
2019-02-25T21:28:43.066Z,61.10
2019-02-25T21:31:49.649Z,60.38
2019-02-25T21:34:56.056Z,61.01
2019-02-25T21:38:03.342Z,60.12
2019-02-25T21:41:13.689Z,59.30
2019-02-25T21:44:21.323Z,58.72
2019-02-25T21:47:28.601Z,58.52
2019-02-25T21:50:35.907Z,58.88
2019-02-25T21:53:41.911Z,58.01
2019-02-25T21:56:47.217Z,58.74
2019-02-25T21:59:54.171Z,58.62
2019-02-25T22:03:10.243Z,59.51
2019-02-25T22:06:13.907Z,60.56
2019-02-25T22:09:35.492Z,60.98
2019-02-25T22:12:26.848Z,61.13
2019-02-25T22:15:34.407Z,60.92
2019-02-25T22:18:41.060Z,60.66
2019-02-25T22:21:46.384Z,60.55
2019-02-25T22:24:51.792Z,59.80
2019-02-25T22:27:58.912Z,60.05
2019-02-25T22:31:08.297Z,59.90
2019-02-25T22:34:13.135Z,59.74
2019-02-25T22:37:22.819Z,59.64
2019-02-25T22:40:30.066Z,59.91
2019-02-25T22:43:37.260Z,60.22
2019-02-25T22:46:49.362Z,60.76
2019-02-25T22:49:55.417Z,60.79
2019-02-25T22:53:01.628Z,60.71
2019-02-25T22:56:11.500Z,61.55
2019-02-25T22:59:14.595Z,62.05
2019-02-25T23:02:19.958Z,62.87
2019-02-25T23:05:25.599Z,63.17
2019-02-25T23:08:31.885Z,64.31
2019-02-25T23:11:39.863Z,63.80
2019-02-25T23:14:44.135Z,61.77
2019-02-25T23:17:49.439Z,60.13
2019-02-25T23:20:59.674Z,57.79
2019-02-25T23:24:05.697Z,57.82
2019-02-25T23:27:11.110Z,56.54
2019-02-25T23:30:16.550Z,55.44
2019-02-25T23:33:22.803Z,55.05
2019-02-25T23:36:28.988Z,54.48
2019-02-25T23:39:36.259Z,55.04
2019-02-25T23:42:41.960Z,56.85
2019-02-25T23:45:48.325Z,56.12
2019-02-25T23:48:55.632Z,55.39
2019-02-25T23:52:00.616Z,56.06
2019-02-25T23:55:07.295Z,56.49
2019-02-25T23:58:14.358Z,56.31
